Las Vegas, Nevada
Current Conditions -  °F | °C
As of 9:56 AM on Monday 22 Dec 2014 (Local Time) from KLAS Reporting Station
Clear Clear  
Wind Chill: 14°   Ceiling: Unl
Heat Index: 14°   Visibility: 10mi
Dew Point:   Wind: 6mph
Humidity: 55%   Direction: 130°SE
Pressure: 30.04"   Gusts: NA
Location:  36.17°N, 115.13°W
Report Text: KLAS 221756Z 13005KT 10SM CLR 14/05 A3004 RMK AO2 SLP165 T01390050 58002
Loading
Personal Weather Stations






























Interactive Weather Map New forecast layout! Learn more

10-Day Weather Forecast

Advertisements
Track Severe Weather on mobile